createdAt,value
2024-02-02T00:00:51.757Z,0.51
2024-02-02T00:01:51.774Z,0.52
2024-02-02T00:02:51.979Z,0.51
2024-02-02T00:03:52.060Z,0.52
2024-02-02T00:04:51.885Z,0.53
2024-02-02T00:05:51.974Z,0.54
2024-02-02T00:06:52.008Z,0.52
2024-02-02T00:07:52.021Z,0.53
2024-02-02T00:08:52.072Z,0.52
2024-02-02T00:09:52.080Z,0.52
2024-02-02T00:10:52.133Z,0.51
2024-02-02T00:11:52.988Z,0.52
2024-02-02T00:12:52.218Z,0.51
2024-02-02T00:13:52.250Z,0.52
2024-02-02T00:14:52.341Z,0.51
2024-02-02T00:15:52.407Z,0.51
2024-02-02T00:16:52.468Z,0.52
2024-02-02T00:17:52.558Z,0.52
2024-02-02T00:18:52.552Z,0.52
2024-02-02T00:19:52.594Z,0.52
2024-02-02T00:20:52.611Z,0.53
2024-02-02T00:21:52.966Z,0.50
2024-02-02T00:22:53.964Z,0.52
2024-02-02T00:23:52.682Z,0.51
2024-02-02T00:24:52.625Z,0.51
2024-02-02T00:25:52.630Z,0.52
2024-02-02T00:26:52.687Z,0.51
2024-02-02T00:27:52.652Z,0.51
2024-02-02T00:28:52.683Z,0.51
2024-02-02T00:29:52.657Z,0.51
2024-02-02T00:30:52.682Z,0.52
2024-02-02T00:31:53.008Z,0.50
2024-02-02T00:32:52.791Z,0.52
2024-02-02T00:33:52.773Z,0.52
2024-02-02T00:34:52.805Z,0.52
2024-02-02T00:35:52.729Z,0.51
2024-02-02T00:36:52.687Z,0.51
2024-02-02T00:37:52.656Z,0.52
2024-02-02T00:38:52.691Z,0.52
2024-02-02T00:39:52.683Z,0.53
2024-02-02T00:40:52.714Z,0.51
2024-02-02T00:41:52.714Z,0.52
2024-02-02T00:42:52.696Z,0.51
2024-02-02T00:43:52.680Z,0.51
2024-02-02T00:44:52.688Z,0.51
2024-02-02T00:45:52.695Z,0.52
2024-02-02T00:46:52.699Z,0.51
2024-02-02T00:47:52.779Z,0.53
2024-02-02T00:48:52.801Z,0.51
2024-02-02T00:49:52.713Z,0.51
2024-02-02T00:50:52.726Z,0.52
2024-02-02T00:51:52.709Z,0.52
2024-02-02T00:52:52.704Z,0.51
2024-02-02T00:53:52.742Z,0.52
2024-02-02T00:54:52.683Z,0.52
2024-02-02T00:55:52.697Z,0.53
2024-02-02T00:56:52.844Z,0.52
2024-02-02T00:57:52.767Z,0.52
2024-02-02T00:58:52.740Z,0.52
2024-02-02T00:59:52.744Z,0.51
2024-02-02T01:00:52.749Z,0.52
2024-02-02T01:01:52.704Z,0.52
2024-02-02T01:02:52.758Z,0.52
2024-02-02T01:03:52.763Z,0.52
2024-02-02T01:04:52.676Z,0.51
2024-02-02T01:05:52.768Z,0.51
2024-02-02T01:06:52.811Z,0.52
2024-02-02T01:07:52.700Z,0.52
2024-02-02T01:08:52.744Z,0.51
2024-02-02T01:09:52.705Z,0.52
2024-02-02T01:10:52.731Z,0.51
2024-02-02T01:11:52.698Z,0.52
2024-02-02T01:12:52.700Z,0.51
2024-02-02T01:13:52.666Z,0.52
2024-02-02T01:14:52.737Z,0.52
2024-02-02T01:15:52.776Z,0.51
2024-02-02T01:16:52.789Z,0.52
2024-02-02T01:17:52.944Z,0.53
2024-02-02T01:18:53.174Z,0.53
2024-02-02T01:19:53.010Z,0.52
2024-02-02T01:20:53.070Z,0.52
2024-02-02T01:21:53.068Z,0.51
2024-02-02T01:22:53.142Z,0.51
2024-02-02T01:23:53.206Z,0.51
2024-02-02T01:24:53.242Z,0.50
2024-02-02T01:25:53.300Z,0.51
2024-02-02T01:26:53.362Z,0.52
2024-02-02T01:27:53.408Z,0.52
2024-02-02T01:28:53.487Z,0.51
2024-02-02T01:29:53.568Z,0.53
2024-02-02T01:30:53.625Z,0.51
2024-02-02T01:31:53.701Z,0.52
2024-02-02T01:32:53.847Z,0.52
2024-02-02T01:33:53.839Z,0.52
2024-02-02T01:34:53.832Z,0.53
2024-02-02T01:35:53.918Z,0.53
2024-02-02T01:36:53.939Z,0.51
2024-02-02T01:37:54.026Z,0.51
2024-02-02T01:38:54.113Z,0.52
2024-02-02T01:39:54.148Z,0.52
2024-02-02T01:40:54.214Z,0.53
2024-02-02T01:41:54.343Z,0.52
2024-02-02T01:42:54.329Z,0.51
2024-02-02T01:43:54.503Z,0.53
2024-02-02T01:44:54.484Z,0.53
2024-02-02T01:45:54.491Z,0.54
2024-02-02T01:46:54.615Z,0.52
2024-02-02T01:47:54.775Z,0.52
2024-02-02T01:48:54.823Z,0.51
2024-02-02T01:49:54.830Z,0.53
2024-02-02T01:50:54.990Z,0.52
2024-02-02T01:51:54.892Z,0.51
2024-02-02T01:52:54.966Z,0.52
2024-02-02T01:53:55.072Z,0.51
2024-02-02T01:54:55.120Z,0.52
2024-02-02T01:55:55.175Z,0.52
2024-02-02T01:56:55.252Z,0.53
2024-02-02T01:57:55.230Z,0.51
2024-02-02T01:58:55.325Z,0.52
2024-02-02T01:59:55.548Z,0.53
2024-02-02T02:00:55.675Z,0.52
2024-02-02T02:01:55.558Z,0.52
2024-02-02T02:02:55.826Z,0.53
2024-02-02T02:03:55.716Z,0.53
2024-02-02T02:04:55.714Z,0.54
2024-02-02T02:05:56.094Z,0.53
2024-02-02T02:06:55.875Z,0.52
2024-02-02T02:07:55.913Z,0.53
2024-02-02T02:08:56.020Z,0.52
2024-02-02T02:09:56.041Z,0.51
2024-02-02T02:10:56.108Z,0.51
2024-02-02T02:11:56.162Z,0.52
2024-02-02T02:12:56.262Z,0.53
2024-02-02T02:13:57.000Z,0.53
2024-02-02T02:14:56.414Z,0.52
2024-02-02T02:15:56.423Z,0.52
2024-02-02T02:16:56.494Z,0.54
2024-02-02T02:17:56.583Z,0.52
2024-02-02T02:19:02.860Z,0.51
2024-02-02T02:19:57.686Z,0.51
2024-02-02T02:20:56.747Z,0.51
2024-02-02T02:21:56.597Z,0.51
2024-02-02T02:22:56.636Z,0.52
2024-02-02T02:23:56.727Z,0.52
2024-02-02T02:24:56.655Z,0.53
2024-02-02T02:25:56.631Z,0.52
2024-02-02T02:26:56.635Z,0.53
2024-02-02T02:27:56.631Z,0.52
2024-02-02T02:28:56.660Z,0.52
2024-02-02T02:29:56.760Z,0.53
2024-02-02T02:30:56.773Z,0.52
2024-02-02T02:31:56.964Z,0.52
2024-02-02T02:32:57.043Z,0.53
2024-02-02T02:33:57.140Z,0.52
2024-02-02T02:34:57.094Z,0.53
2024-02-02T02:35:57.214Z,0.51
2024-02-02T02:36:57.221Z,0.53
2024-02-02T02:37:57.293Z,0.53
2024-02-02T02:38:57.338Z,0.53
2024-02-02T02:39:57.423Z,0.52
2024-02-02T02:40:57.494Z,0.52
2024-02-02T02:41:57.587Z,0.52
2024-02-02T02:42:57.643Z,0.53
2024-02-02T02:43:57.678Z,0.52
2024-02-02T02:44:57.852Z,0.53
2024-02-02T02:45:57.848Z,0.53
2024-02-02T02:46:57.907Z,0.52
2024-02-02T02:47:58.621Z,0.54
2024-02-02T02:48:58.158Z,0.53
2024-02-02T02:49:58.112Z,0.53
2024-02-02T02:50:58.208Z,0.52
2024-02-02T02:51:58.245Z,0.52
2024-02-02T02:52:58.334Z,0.53
2024-02-02T02:53:58.422Z,0.54
2024-02-02T02:54:58.489Z,0.53
2024-02-02T02:55:58.566Z,0.52
2024-02-02T02:56:58.697Z,0.53
2024-02-02T02:57:58.685Z,0.51
2024-02-02T02:58:58.757Z,0.52
2024-02-02T02:59:58.871Z,0.52
2024-02-02T03:00:58.939Z,0.51
2024-02-02T03:01:58.979Z,0.52
2024-02-02T03:02:59.079Z,0.53
2024-02-02T03:03:59.124Z,0.52
2024-02-02T03:04:59.192Z,0.52
2024-02-02T03:05:59.401Z,0.53
2024-02-02T03:06:59.355Z,0.52
2024-02-02T03:07:59.382Z,0.53
2024-02-02T03:08:59.451Z,0.53
2024-02-02T03:09:59.510Z,0.53
2024-02-02T03:10:59.605Z,0.53
2024-02-02T03:11:59.680Z,0.53
2024-02-02T03:12:59.776Z,0.54
2024-02-02T03:13:59.789Z,0.54
2024-02-02T03:14:59.923Z,0.52
2024-02-02T03:15:59.943Z,0.53
2024-02-02T03:17:00.018Z,0.52
2024-02-02T03:18:00.218Z,0.53
2024-02-02T03:19:00.307Z,0.53
2024-02-02T03:20:00.313Z,0.54
2024-02-02T03:21:00.327Z,0.53
2024-02-02T03:22:00.397Z,0.54
2024-02-02T03:23:00.456Z,0.53
2024-02-02T03:24:00.539Z,0.52
2024-02-02T03:25:00.583Z,0.52
2024-02-02T03:26:00.608Z,0.53
2024-02-02T03:27:00.728Z,0.52
2024-02-02T03:28:00.952Z,0.53
2024-02-02T03:29:00.854Z,0.53
2024-02-02T03:30:00.997Z,0.52
2024-02-02T03:31:00.951Z,0.53
2024-02-02T03:32:01.034Z,0.54
2024-02-02T03:33:01.263Z,0.52
2024-02-02T03:34:01.277Z,0.52
2024-02-02T03:35:01.254Z,0.51
2024-02-02T03:36:01.393Z,0.52
2024-02-02T03:37:01.371Z,0.52
2024-02-02T03:38:01.471Z,0.52
2024-02-02T03:39:01.543Z,0.52
2024-02-02T03:40:01.597Z,0.54
2024-02-02T03:41:01.634Z,0.52
2024-02-02T03:42:01.736Z,0.52
2024-02-02T03:43:01.779Z,0.53
2024-02-02T03:44:01.886Z,0.52
2024-02-02T03:45:02.020Z,0.52
2024-02-02T03:46:01.987Z,0.52
2024-02-02T03:47:02.053Z,0.52
2024-02-02T03:48:02.202Z,0.52
2024-02-02T03:49:02.286Z,0.52
2024-02-02T03:50:02.414Z,0.53
2024-02-02T03:51:02.375Z,0.52
2024-02-02T03:52:02.507Z,0.53
2024-02-02T03:53:02.471Z,0.52
2024-02-02T03:54:02.600Z,0.52
2024-02-02T03:55:02.554Z,0.51
2024-02-02T03:56:02.631Z,0.53
2024-02-02T03:57:02.828Z,0.53
2024-02-02T03:58:02.798Z,0.53
2024-02-02T03:59:02.900Z,0.52
2024-02-02T04:00:02.962Z,0.52
2024-02-02T04:01:03.033Z,0.52
2024-02-02T04:02:03.093Z,0.53
2024-02-02T04:03:03.663Z,0.51
2024-02-02T04:04:03.288Z,0.53
2024-02-02T04:05:03.308Z,0.52
2024-02-02T04:06:03.330Z,0.51
2024-02-02T04:07:03.427Z,0.52
2024-02-02T04:08:03.530Z,0.52
2024-02-02T04:09:03.577Z,0.53
2024-02-02T04:10:03.552Z,0.52
2024-02-02T04:11:03.626Z,0.51
2024-02-02T04:12:03.756Z,0.52
2024-02-02T04:13:04.003Z,0.52
2024-02-02T04:14:03.798Z,0.52
2024-02-02T04:15:03.888Z,0.52
2024-02-02T04:16:03.953Z,0.53
2024-02-02T04:17:03.948Z,0.52
2024-02-02T04:18:04.670Z,0.52
2024-02-02T04:19:04.158Z,0.52
2024-02-02T04:20:04.254Z,0.53
2024-02-02T04:21:04.220Z,0.51
2024-02-02T04:22:04.248Z,0.51
2024-02-02T04:23:04.569Z,0.51
2024-02-02T04:24:04.358Z,0.53
2024-02-02T04:25:04.368Z,0.51
2024-02-02T04:26:04.381Z,0.51
2024-02-02T04:27:04.448Z,0.51
2024-02-02T04:28:04.526Z,0.52
2024-02-02T04:29:04.538Z,0.52
2024-02-02T04:30:04.715Z,0.52
2024-02-02T04:31:04.646Z,0.52
2024-02-02T04:32:04.744Z,0.52
2024-02-02T04:33:05.126Z,0.52
2024-02-02T04:34:04.889Z,0.52
2024-02-02T04:35:12.288Z,0.50
2024-02-02T04:36:12.271Z,0.50
2024-02-02T04:37:12.237Z,0.50
2024-02-02T04:38:12.247Z,0.50
2024-02-02T04:39:12.346Z,0.50
2024-02-02T04:40:12.301Z,0.50
2024-02-02T04:41:12.254Z,0.52
2024-02-02T04:42:12.308Z,0.52
2024-02-02T04:43:12.290Z,0.51
2024-02-02T04:44:12.269Z,0.52
2024-02-02T04:45:12.262Z,0.50
2024-02-02T04:46:12.421Z,0.51
2024-02-02T04:47:12.296Z,0.51
2024-02-02T04:48:12.486Z,0.51
2024-02-02T04:49:12.447Z,0.51
2024-02-02T04:50:12.240Z,0.51
2024-02-02T04:51:12.321Z,0.51
2024-02-02T04:52:12.234Z,0.51
2024-02-02T04:53:12.256Z,0.51
2024-02-02T04:54:12.318Z,0.51
2024-02-02T04:55:12.258Z,0.52
2024-02-02T04:56:12.251Z,0.52
2024-02-02T04:57:12.323Z,0.50
2024-02-02T04:58:12.347Z,0.52
2024-02-02T04:59:12.369Z,0.52
2024-02-02T05:00:12.502Z,0.52
2024-02-02T05:01:12.555Z,0.51
2024-02-02T05:02:12.688Z,0.52
2024-02-02T05:03:12.970Z,0.51
2024-02-02T05:04:12.754Z,0.52
2024-02-02T05:05:12.756Z,0.51
2024-02-02T05:06:12.850Z,0.52
2024-02-02T05:07:12.970Z,0.52
2024-02-02T05:08:13.453Z,0.51
2024-02-02T05:09:13.026Z,0.50
2024-02-02T05:10:13.072Z,0.52
2024-02-02T05:11:14.020Z,0.51
2024-02-02T05:12:13.251Z,0.52
2024-02-02T05:13:16.384Z,0.51
2024-02-02T05:14:13.285Z,0.51
2024-02-02T05:15:13.432Z,0.51
2024-02-02T05:16:15.612Z,0.52
2024-02-02T05:17:13.351Z,0.52
2024-02-02T05:18:14.133Z,0.52
2024-02-02T05:19:13.358Z,0.52
2024-02-02T05:20:13.244Z,0.52
2024-02-02T05:21:13.311Z,0.52
2024-02-02T05:22:13.349Z,0.53
2024-02-02T05:23:13.330Z,0.53
2024-02-02T05:24:26.243Z,0.52
2024-02-02T05:25:15.592Z,0.52
2024-02-02T05:26:13.371Z,0.51
2024-02-02T05:27:13.580Z,0.52
2024-02-02T05:28:13.532Z,0.51
2024-02-02T05:29:13.526Z,0.51
2024-02-02T05:30:13.691Z,0.52
2024-02-02T05:31:13.736Z,0.51
2024-02-02T05:32:13.773Z,0.50
2024-02-02T05:33:13.947Z,0.52
2024-02-02T05:34:14.144Z,0.52
2024-02-02T05:35:13.970Z,0.52
2024-02-02T05:36:13.992Z,0.51
2024-02-02T05:37:13.995Z,0.53
2024-02-02T05:38:14.111Z,0.50
2024-02-02T05:39:14.126Z,0.52
2024-02-02T05:40:14.190Z,0.53
2024-02-02T05:41:14.271Z,0.51
2024-02-02T05:42:14.352Z,0.51
2024-02-02T05:43:14.339Z,0.53
2024-02-02T05:44:14.455Z,0.52
2024-02-02T05:45:14.553Z,0.52
2024-02-02T05:46:14.545Z,0.51
2024-02-02T05:47:14.640Z,0.53
2024-02-02T05:48:14.999Z,0.51
2024-02-02T05:49:14.737Z,0.52
2024-02-02T05:50:14.759Z,0.51
2024-02-02T05:51:14.940Z,0.51
2024-02-02T05:52:14.817Z,0.52
2024-02-02T05:53:15.439Z,0.51
2024-02-02T05:54:14.945Z,0.51
2024-02-02T05:55:14.935Z,0.52
2024-02-02T05:56:15.121Z,0.51
2024-02-02T05:57:15.170Z,0.52
2024-02-02T05:58:15.479Z,0.52
2024-02-02T05:59:15.156Z,0.53
2024-02-02T06:00:15.282Z,0.51
2024-02-02T06:01:15.340Z,0.52
2024-02-02T06:02:15.355Z,0.50
2024-02-02T06:03:15.948Z,0.52
2024-02-02T06:04:15.546Z,0.51
2024-02-02T06:05:15.582Z,0.51
2024-02-02T06:06:15.682Z,0.51
2024-02-02T06:07:15.763Z,0.52
2024-02-02T06:08:16.056Z,0.50
2024-02-02T06:09:16.452Z,0.52
2024-02-02T06:10:15.820Z,0.52
2024-02-02T06:11:15.859Z,0.50
2024-02-02T06:12:15.959Z,0.52
2024-02-02T06:13:15.959Z,0.51
2024-02-02T06:14:16.105Z,0.53
2024-02-02T06:15:16.231Z,0.52
2024-02-02T06:16:16.188Z,0.52
2024-02-02T06:17:16.222Z,0.53
2024-02-02T06:18:16.590Z,0.53
2024-02-02T06:19:16.499Z,0.52
2024-02-02T06:20:16.483Z,0.52
2024-02-02T06:21:16.670Z,0.51
2024-02-02T06:22:16.627Z,0.51
2024-02-02T06:23:17.100Z,0.52
2024-02-02T06:24:16.694Z,0.52
2024-02-02T06:25:16.679Z,0.52
2024-02-02T06:26:16.685Z,0.52
2024-02-02T06:27:16.987Z,0.51
2024-02-02T06:28:16.806Z,0.53
2024-02-02T06:29:16.905Z,0.52
2024-02-02T06:30:16.954Z,0.52
2024-02-02T06:31:17.013Z,0.52
2024-02-02T06:32:17.009Z,0.52
2024-02-02T06:33:17.622Z,0.53
2024-02-02T06:34:17.289Z,0.52
2024-02-02T06:35:17.111Z,0.52
2024-02-02T06:36:17.189Z,0.52
2024-02-02T06:37:17.177Z,0.52
2024-02-02T06:38:17.168Z,0.51
2024-02-02T06:39:17.206Z,0.52
2024-02-02T06:40:17.191Z,0.53
2024-02-02T06:41:17.265Z,0.52
2024-02-02T06:42:17.230Z,0.52
2024-02-02T06:43:17.612Z,0.52
2024-02-02T06:44:17.284Z,0.51
2024-02-02T06:45:17.510Z,0.51
2024-02-02T06:46:17.324Z,0.51
2024-02-02T06:47:17.324Z,0.51
2024-02-02T06:48:17.500Z,0.50
2024-02-02T06:49:18.560Z,0.51
2024-02-02T06:50:18.214Z,0.53
2024-02-02T06:51:17.517Z,1.35
2024-02-02T06:52:17.538Z,0.91
2024-02-02T06:53:18.968Z,0.85
2024-02-02T06:54:17.464Z,0.84
2024-02-02T06:55:17.583Z,0.83
2024-02-02T06:56:17.548Z,0.79
2024-02-02T06:57:17.591Z,0.75
2024-02-02T06:58:17.686Z,0.72
2024-02-02T06:59:17.718Z,0.69
2024-02-02T07:00:17.877Z,0.66
2024-02-02T07:01:19.267Z,0.65
2024-02-02T07:02:18.353Z,0.63
2024-02-02T07:03:18.145Z,0.62
2024-02-02T07:04:18.179Z,0.60
2024-02-02T07:05:18.028Z,0.59
2024-02-02T07:06:18.243Z,0.59
2024-02-02T07:07:18.216Z,0.60
2024-02-02T07:08:18.362Z,0.61
2024-02-02T07:09:18.306Z,0.61
2024-02-02T07:10:18.285Z,0.62
2024-02-02T07:11:18.337Z,0.62
2024-02-02T07:12:18.323Z,0.64
2024-02-02T07:13:18.392Z,0.65
2024-02-02T07:14:18.428Z,0.67
2024-02-02T07:15:18.476Z,0.68
2024-02-02T07:16:18.371Z,0.70
2024-02-02T07:17:18.430Z,0.72
2024-02-02T07:18:18.528Z,0.74
2024-02-02T07:19:18.566Z,0.76
2024-02-02T07:20:18.457Z,0.80
2024-02-02T07:21:18.569Z,0.82
2024-02-02T07:22:18.493Z,0.85
2024-02-02T07:23:18.582Z,0.88
2024-02-02T07:24:18.663Z,0.92
2024-02-02T07:25:18.668Z,0.96
2024-02-02T07:26:18.701Z,0.96
2024-02-02T07:27:41.245Z,0.99
2024-02-02T07:28:18.793Z,0.99
2024-02-02T07:29:21.492Z,1.01
2024-02-02T07:30:18.779Z,1.00
2024-02-02T07:31:18.781Z,1.02
2024-02-02T07:32:18.786Z,1.07
2024-02-02T07:33:18.946Z,1.14
2024-02-02T07:34:18.856Z,1.28
2024-02-02T07:35:18.767Z,1.36
2024-02-02T07:36:18.820Z,1.39
2024-02-02T07:37:18.845Z,1.46
2024-02-02T07:38:18.786Z,1.51
2024-02-02T07:39:18.796Z,1.56
2024-02-02T07:40:18.774Z,1.61
2024-02-02T07:41:18.786Z,1.63
2024-02-02T07:42:18.782Z,1.62
2024-02-02T07:43:18.866Z,1.61
2024-02-02T07:44:18.771Z,1.55
2024-02-02T07:45:18.812Z,1.46
2024-02-02T07:46:18.837Z,1.41
2024-02-02T07:47:18.795Z,1.37
2024-02-02T07:48:19.001Z,1.31
2024-02-02T07:49:18.883Z,1.23
2024-02-02T07:50:18.818Z,1.17
2024-02-02T07:51:18.997Z,1.11
2024-02-02T07:52:18.904Z,1.07
2024-02-02T07:53:18.890Z,1.02
2024-02-02T07:54:18.941Z,0.98
2024-02-02T07:55:18.816Z,0.95
2024-02-02T07:56:18.841Z,0.93
2024-02-02T07:57:18.917Z,0.91
2024-02-02T07:58:18.822Z,0.87
2024-02-02T07:59:18.806Z,0.87
2024-02-02T08:00:19.004Z,0.85
2024-02-02T08:01:19.589Z,0.81
2024-02-02T08:02:18.831Z,0.83
2024-02-02T08:03:18.881Z,0.80
2024-02-02T08:04:18.947Z,0.84
2024-02-02T08:05:18.893Z,0.86
2024-02-02T08:06:18.835Z,0.82
2024-02-02T08:07:18.984Z,0.85
2024-02-02T08:08:18.853Z,0.83
2024-02-02T08:09:19.610Z,0.84
2024-02-02T08:10:18.842Z,0.86
2024-02-02T08:11:18.846Z,0.87
2024-02-02T08:12:18.901Z,0.90
2024-02-02T08:13:18.933Z,0.95
2024-02-02T08:14:18.838Z,0.96
2024-02-02T08:15:18.855Z,0.99
2024-02-02T08:16:18.881Z,0.98
2024-02-02T08:17:18.832Z,0.98
2024-02-02T08:18:18.943Z,1.00
2024-02-02T08:19:18.993Z,1.02
2024-02-02T08:20:18.959Z,1.04
2024-02-02T08:21:19.017Z,1.07
2024-02-02T08:22:19.111Z,1.07
2024-02-02T08:23:19.479Z,1.09
2024-02-02T08:24:19.271Z,1.09
2024-02-02T08:25:19.285Z,1.10
2024-02-02T08:26:19.312Z,1.14
2024-02-02T08:27:19.432Z,1.13
2024-02-02T08:28:19.512Z,1.16
2024-02-02T08:29:19.515Z,1.16
2024-02-02T08:30:19.635Z,1.17
2024-02-02T08:31:19.630Z,1.16
2024-02-02T08:32:19.799Z,1.16
2024-02-02T08:33:19.903Z,1.18
2024-02-02T08:34:19.993Z,1.19
2024-02-02T08:35:19.909Z,1.21
2024-02-02T08:36:20.118Z,1.22
2024-02-02T08:37:20.068Z,1.20
2024-02-02T08:38:20.078Z,1.23
2024-02-02T08:39:20.193Z,1.24
2024-02-02T08:40:20.186Z,1.22
2024-02-02T08:41:20.275Z,1.24
2024-02-02T08:42:20.367Z,1.28
2024-02-02T08:43:20.443Z,1.26
2024-02-02T08:44:20.425Z,1.29
2024-02-02T08:45:20.544Z,1.32
2024-02-02T08:46:20.690Z,1.34
2024-02-02T08:47:20.655Z,1.34
2024-02-02T08:48:20.764Z,1.34
2024-02-02T08:49:20.800Z,1.36
2024-02-02T08:50:20.720Z,1.40
2024-02-02T08:51:20.776Z,1.38
2024-02-02T08:52:20.800Z,1.40
2024-02-02T08:53:20.900Z,1.42
2024-02-02T08:54:20.956Z,1.42
2024-02-02T08:55:20.955Z,1.45
2024-02-02T08:56:21.084Z,1.44
2024-02-02T08:57:21.664Z,1.40
2024-02-02T08:58:21.165Z,1.44
2024-02-02T08:59:21.244Z,1.38
2024-02-02T09:00:21.362Z,1.37
2024-02-02T09:01:21.431Z,1.42
2024-02-02T09:02:21.398Z,1.35
2024-02-02T09:03:21.607Z,1.37
2024-02-02T09:04:21.684Z,1.36
2024-02-02T09:05:21.640Z,1.33
2024-02-02T09:06:21.722Z,1.35
2024-02-02T09:07:21.801Z,1.36
2024-02-02T09:08:21.817Z,1.36
2024-02-02T09:09:21.960Z,1.36
2024-02-02T09:10:21.997Z,1.37
2024-02-02T09:11:21.916Z,1.33
2024-02-02T09:12:21.976Z,1.33
2024-02-02T09:13:21.988Z,1.34
2024-02-02T09:14:23.192Z,1.31
2024-02-02T09:15:22.027Z,1.32
2024-02-02T09:16:21.985Z,1.29
2024-02-02T09:17:22.082Z,1.33
2024-02-02T09:18:22.053Z,1.31
2024-02-02T09:19:22.038Z,1.27
2024-02-02T09:20:22.040Z,1.28
2024-02-02T09:21:22.076Z,1.24
2024-02-02T09:22:22.055Z,1.26
2024-02-02T09:23:22.055Z,1.27
2024-02-02T09:24:22.075Z,1.26
2024-02-02T09:25:22.037Z,1.24
2024-02-02T09:26:22.088Z,1.22
2024-02-02T09:27:22.208Z,1.23
2024-02-02T09:28:22.117Z,1.22
2024-02-02T09:29:22.114Z,1.23
2024-02-02T09:30:22.320Z,1.20
2024-02-02T09:31:22.168Z,1.20
2024-02-02T09:32:22.322Z,1.19
2024-02-02T09:33:22.292Z,1.18
2024-02-02T09:34:22.309Z,1.17
2024-02-02T09:35:22.280Z,1.17
2024-02-02T09:36:22.393Z,1.18
2024-02-02T09:37:22.343Z,1.14
2024-02-02T09:38:22.390Z,1.14
2024-02-02T09:39:22.473Z,1.14
2024-02-02T09:40:22.402Z,1.16
2024-02-02T09:41:22.514Z,1.11
2024-02-02T09:42:22.595Z,1.08
2024-02-02T09:43:22.578Z,1.10
2024-02-02T09:44:22.596Z,1.06
2024-02-02T09:45:22.695Z,1.03
2024-02-02T09:46:22.641Z,1.00
2024-02-02T09:47:22.689Z,0.94
2024-02-02T09:48:22.867Z,0.94
2024-02-02T09:49:22.850Z,0.93
2024-02-02T09:50:22.849Z,0.93
2024-02-02T09:51:22.790Z,0.96
2024-02-02T09:52:22.733Z,0.97
2024-02-02T09:53:22.775Z,0.96
2024-02-02T09:54:22.871Z,0.95
2024-02-02T09:55:22.993Z,0.92
2024-02-02T09:56:24.774Z,0.88
2024-02-02T09:57:22.953Z,0.86
2024-02-02T09:58:23.045Z,0.83
2024-02-02T09:59:22.895Z,0.83
2024-02-02T10:00:23.484Z,0.79
2024-02-02T10:01:22.895Z,0.79
2024-02-02T10:02:22.896Z,0.76
2024-02-02T10:03:22.864Z,0.75
2024-02-02T10:04:22.898Z,0.72
2024-02-02T10:05:22.902Z,0.72
2024-02-02T10:06:22.932Z,0.72
2024-02-02T10:07:23.012Z,0.70
2024-02-02T10:08:22.909Z,0.69
2024-02-02T10:09:22.911Z,0.69
2024-02-02T10:10:22.870Z,0.70
2024-02-02T10:11:23.479Z,0.70
2024-02-02T10:12:22.883Z,0.70
2024-02-02T10:13:22.881Z,0.70
2024-02-02T10:14:22.898Z,0.70
2024-02-02T10:15:22.944Z,0.69
2024-02-02T10:16:22.888Z,0.68
2024-02-02T10:17:22.914Z,0.67
2024-02-02T10:18:22.941Z,0.67
2024-02-02T10:19:23.028Z,0.66
2024-02-02T10:20:22.896Z,0.64
2024-02-02T10:21:22.916Z,0.62
2024-02-02T10:22:22.886Z,0.64
2024-02-02T10:23:22.870Z,0.62
2024-02-02T10:24:22.952Z,0.61
2024-02-02T10:25:22.895Z,0.61
2024-02-02T10:26:22.887Z,0.60
2024-02-02T10:27:22.919Z,0.59
2024-02-02T10:28:22.897Z,0.57
2024-02-02T10:29:22.900Z,0.58
2024-02-02T10:30:22.950Z,0.60
2024-02-02T10:31:22.930Z,0.58
2024-02-02T10:32:22.885Z,0.59
2024-02-02T10:33:23.085Z,0.59
2024-02-02T10:34:23.121Z,0.59
2024-02-02T10:35:22.913Z,0.61
2024-02-02T10:36:22.909Z,0.60
2024-02-02T10:37:22.894Z,0.61
2024-02-02T10:38:22.926Z,0.62
2024-02-02T10:39:22.929Z,0.63
2024-02-02T10:40:22.923Z,0.62
2024-02-02T10:41:22.917Z,0.62
2024-02-02T10:42:22.939Z,0.63
2024-02-02T10:43:22.933Z,0.64
2024-02-02T10:44:22.897Z,0.64
2024-02-02T10:45:22.923Z,0.63
2024-02-02T10:46:22.908Z,0.65
2024-02-02T10:47:23.783Z,0.66
2024-02-02T10:48:23.012Z,0.68
2024-02-02T10:49:23.067Z,0.70
2024-02-02T10:50:22.913Z,0.75
2024-02-02T10:51:22.948Z,0.79
2024-02-02T10:52:22.938Z,0.84
2024-02-02T10:53:22.942Z,0.88
2024-02-02T10:54:22.944Z,0.92
2024-02-02T10:55:22.930Z,0.96
2024-02-02T10:56:22.889Z,0.96
2024-02-02T10:57:22.966Z,0.97
2024-02-02T10:58:22.941Z,1.00
2024-02-02T10:59:22.902Z,0.97
2024-02-02T11:00:25.019Z,0.97
2024-02-02T11:01:23.254Z,0.99
2024-02-02T11:02:23.191Z,0.97
2024-02-02T11:03:23.351Z,0.99
2024-02-02T11:04:23.291Z,1.00
2024-02-02T11:05:23.191Z,0.98
2024-02-02T11:06:23.294Z,1.00
2024-02-02T11:07:23.261Z,0.99
2024-02-02T11:08:23.204Z,0.99
2024-02-02T11:09:23.264Z,1.01
2024-02-02T11:10:23.239Z,0.98
2024-02-02T11:11:23.301Z,1.02
2024-02-02T11:12:23.308Z,0.98
2024-02-02T11:13:23.304Z,1.01
2024-02-02T11:14:23.420Z,0.99
2024-02-02T11:15:23.353Z,1.00
2024-02-02T11:16:23.369Z,1.01
2024-02-02T11:17:23.998Z,1.00
2024-02-02T11:18:23.482Z,1.00
2024-02-02T11:19:23.442Z,1.00
2024-02-02T11:20:23.404Z,0.98
2024-02-02T11:21:23.408Z,1.00
2024-02-02T11:22:23.400Z,0.99
2024-02-02T11:23:23.472Z,0.98
2024-02-02T11:24:23.506Z,0.98
2024-02-02T11:25:23.560Z,1.00
2024-02-02T11:26:24.535Z,1.00
2024-02-02T11:27:23.519Z,0.99
2024-02-02T11:28:23.513Z,1.01
2024-02-02T11:29:23.523Z,0.99
2024-02-02T11:30:23.521Z,1.00
2024-02-02T11:31:23.536Z,0.98
2024-02-02T11:32:23.501Z,0.99
2024-02-02T11:33:23.753Z,1.01
2024-02-02T11:34:23.570Z,0.97
2024-02-02T11:35:23.552Z,0.98
2024-02-02T11:36:23.533Z,0.98
2024-02-02T11:37:23.519Z,0.98
2024-02-02T11:38:23.514Z,0.98
2024-02-02T11:39:23.604Z,0.97
2024-02-02T11:40:23.546Z,0.98
2024-02-02T11:41:23.553Z,0.97
2024-02-02T11:42:23.576Z,0.98
2024-02-02T11:43:24.073Z,0.96
2024-02-02T11:44:23.582Z,0.95
2024-02-02T11:45:23.625Z,0.95
2024-02-02T11:46:23.650Z,0.96
2024-02-02T11:47:23.690Z,0.94
2024-02-02T11:48:23.820Z,0.95
2024-02-02T11:49:23.910Z,0.96
2024-02-02T11:50:23.806Z,0.94
2024-02-02T11:51:23.971Z,0.95
2024-02-02T11:52:23.940Z,0.94
2024-02-02T11:53:24.023Z,0.93
2024-02-02T11:54:24.122Z,0.91
2024-02-02T11:55:24.077Z,0.90
2024-02-02T11:56:24.137Z,0.93
2024-02-02T11:57:24.163Z,0.90
2024-02-02T11:58:24.200Z,0.91
2024-02-02T11:59:24.250Z,0.94
2024-02-02T12:00:24.329Z,0.93
2024-02-02T12:01:25.158Z,0.89
2024-02-02T12:02:24.419Z,0.91
2024-02-02T12:03:24.539Z,0.90
2024-02-02T12:04:24.533Z,0.92
2024-02-02T12:05:24.602Z,0.91
2024-02-02T12:06:24.613Z,0.90
2024-02-02T12:07:24.776Z,0.91
2024-02-02T12:08:24.651Z,0.89
2024-02-02T12:09:24.833Z,0.90
2024-02-02T12:10:24.765Z,0.89
2024-02-02T12:11:29.644Z,0.92
2024-02-02T12:12:25.929Z,0.92
2024-02-02T12:13:24.867Z,0.90
2024-02-02T12:14:24.828Z,0.89
2024-02-02T12:15:24.923Z,0.90
2024-02-02T12:16:24.827Z,0.88
2024-02-02T12:17:24.828Z,0.90
2024-02-02T12:18:25.040Z,0.89
2024-02-02T12:19:24.980Z,0.88
2024-02-02T12:20:24.949Z,0.89
2024-02-02T12:21:24.927Z,0.88
2024-02-02T12:22:24.822Z,0.88
2024-02-02T12:23:24.857Z,0.88
2024-02-02T12:24:25.011Z,0.89
2024-02-02T12:25:25.037Z,0.87
2024-02-02T12:26:25.050Z,0.87
2024-02-02T12:27:25.124Z,0.87
2024-02-02T12:28:25.101Z,0.87
2024-02-02T12:29:25.116Z,0.87
2024-02-02T12:30:25.244Z,0.86
2024-02-02T12:31:25.247Z,0.86
2024-02-02T12:32:25.301Z,0.84
2024-02-02T12:33:25.634Z,0.87
2024-02-02T12:34:25.557Z,0.86
2024-02-02T12:35:25.762Z,0.85
2024-02-02T12:36:25.652Z,0.84
2024-02-02T12:37:25.495Z,0.84
2024-02-02T12:38:25.590Z,0.86
2024-02-02T12:39:25.582Z,0.83
2024-02-02T12:40:25.634Z,0.82
2024-02-02T12:41:25.682Z,0.83
2024-02-02T12:42:25.761Z,0.83
2024-02-02T12:43:25.719Z,0.84
2024-02-02T12:44:25.746Z,0.83
2024-02-02T12:45:25.944Z,0.82
2024-02-02T12:46:25.813Z,0.81
2024-02-02T12:47:25.879Z,0.81
2024-02-02T12:48:26.072Z,0.81
2024-02-02T12:49:26.747Z,0.81
2024-02-02T12:50:25.946Z,0.81
2024-02-02T12:51:26.027Z,0.81
2024-02-02T12:52:26.010Z,0.81
2024-02-02T12:53:26.078Z,0.81
2024-02-02T12:54:26.064Z,0.81
2024-02-02T12:55:26.076Z,0.81
2024-02-02T12:56:26.094Z,0.80
2024-02-02T12:57:26.182Z,0.80
2024-02-02T12:58:26.174Z,0.81
2024-02-02T12:59:26.213Z,0.80
2024-02-02T13:00:27.284Z,0.80
2024-02-02T13:01:26.284Z,0.79
2024-02-02T13:02:26.286Z,0.78
2024-02-02T13:03:30.008Z,0.80
2024-02-02T13:04:27.412Z,0.80
2024-02-02T13:05:26.374Z,0.79
2024-02-02T13:06:26.442Z,0.79
2024-02-02T13:07:26.420Z,0.78
2024-02-02T13:08:26.277Z,0.78
2024-02-02T13:09:26.326Z,0.79
2024-02-02T13:10:26.312Z,0.78
2024-02-02T13:11:26.328Z,0.77
2024-02-02T13:12:26.285Z,0.80
2024-02-02T13:13:26.419Z,0.79
2024-02-02T13:14:26.256Z,0.76
2024-02-02T13:15:26.321Z,0.78
2024-02-02T13:16:26.275Z,0.77
2024-02-02T13:17:26.376Z,0.78
2024-02-02T13:18:26.462Z,0.78
2024-02-02T13:19:26.286Z,0.77